sensor_id;sensor_type;location;lat;lon;timestamp;P1;durP1;ratioP1;P2;durP2;ratioP2
7057;SDS011;3570;43.080;25.628;2022-09-17T00:01:55;9.47;;;4.10;;
7057;SDS011;3570;43.080;25.628;2022-09-17T00:04:39;9.83;;;3.37;;
7057;SDS011;3570;43.080;25.628;2022-09-17T00:07:23;4.33;;;2.97;;
7057;SDS011;3570;43.080;25.628;2022-09-17T00:10:07;5.90;;;3.07;;
7057;SDS011;3570;43.080;25.628;2022-09-17T00:12:51;4.80;;;2.60;;
7057;SDS011;3570;43.080;25.628;2022-09-17T00:15:42;7.40;;;3.00;;
7057;SDS011;3570;43.080;25.628;2022-09-17T00:18:28;3.67;;;2.70;;
7057;SDS011;3570;43.080;25.628;2022-09-17T00:21:15;5.07;;;3.00;;
7057;SDS011;3570;43.080;25.628;2022-09-17T00:24:02;4.00;;;3.03;;
7057;SDS011;3570;43.080;25.628;2022-09-17T00:26:48;5.97;;;2.97;;
7057;SDS011;3570;43.080;25.628;2022-09-17T00:29:32;5.87;;;3.30;;
7057;SDS011;3570;43.080;25.628;2022-09-17T00:32:16;5.00;;;2.70;;
7057;SDS011;3570;43.080;25.628;2022-09-17T00:35:00;5.93;;;2.80;;
7057;SDS011;3570;43.080;25.628;2022-09-17T00:37:44;4.63;;;2.57;;
7057;SDS011;3570;43.080;25.628;2022-09-17T00:40:28;5.60;;;3.17;;
7057;SDS011;3570;43.080;25.628;2022-09-17T00:43:13;4.33;;;2.40;;
7057;SDS011;3570;43.080;25.628;2022-09-17T00:45:58;6.77;;;3.10;;
7057;SDS011;3570;43.080;25.628;2022-09-17T00:48:43;5.20;;;2.40;;
7057;SDS011;3570;43.080;25.628;2022-09-17T00:51:29;5.57;;;2.80;;
7057;SDS011;3570;43.080;25.628;2022-09-17T00:54:18;5.50;;;2.90;;
7057;SDS011;3570;43.080;25.628;2022-09-17T00:57:02;4.93;;;2.80;;
7057;SDS011;3570;43.080;25.628;2022-09-17T00:59:47;6.53;;;3.40;;
7057;SDS011;3570;43.080;25.628;2022-09-17T01:02:31;10.10;;;2.97;;
7057;SDS011;3570;43.080;25.628;2022-09-17T01:05:15;3.83;;;2.87;;
7057;SDS011;3570;43.080;25.628;2022-09-17T01:08:04;5.03;;;3.23;;
7057;SDS011;3570;43.080;25.628;2022-09-17T01:17:23;5.30;;;2.53;;
7057;SDS011;3570;43.080;25.628;2022-09-17T01:20:40;6.63;;;2.90;;
7057;SDS011;3570;43.080;25.628;2022-09-17T01:33:04;4.80;;;2.50;;
7057;SDS011;3570;43.080;25.628;2022-09-17T01:45:10;4.10;;;2.47;;
7057;SDS011;3570;43.080;25.628;2022-09-17T01:48:14;3.50;;;2.23;;
7057;SDS011;3570;43.080;25.628;2022-09-17T01:51:05;4.33;;;2.77;;
7057;SDS011;3570;43.080;25.628;2022-09-17T01:54:02;4.93;;;2.30;;
7057;SDS011;3570;43.080;25.628;2022-09-17T01:59:49;5.90;;;2.50;;
7057;SDS011;3570;43.080;25.628;2022-09-17T02:02:39;5.73;;;2.50;;
7057;SDS011;3570;43.080;25.628;2022-09-17T02:08:23;3.03;;;2.20;;
7057;SDS011;3570;43.080;25.628;2022-09-17T02:11:12;4.17;;;2.20;;
7057;SDS011;3570;43.080;25.628;2022-09-17T02:14:01;5.67;;;2.83;;
7057;SDS011;3570;43.080;25.628;2022-09-17T02:16:50;4.40;;;2.47;;
7057;SDS011;3570;43.080;25.628;2022-09-17T02:19:39;4.20;;;2.50;;
7057;SDS011;3570;43.080;25.628;2022-09-17T02:28:16;3.13;;;2.03;;
7057;SDS011;3570;43.080;25.628;2022-09-17T02:31:08;4.80;;;2.60;;
7057;SDS011;3570;43.080;25.628;2022-09-17T02:33:53;5.50;;;1.90;;
7057;SDS011;3570;43.080;25.628;2022-09-17T02:36:44;6.20;;;3.03;;
7057;SDS011;3570;43.080;25.628;2022-09-17T02:39:28;4.57;;;1.97;;
7057;SDS011;3570;43.080;25.628;2022-09-17T02:45:09;3.10;;;2.37;;
7057;SDS011;3570;43.080;25.628;2022-09-17T02:49:06;3.90;;;2.73;;
7057;SDS011;3570;43.080;25.628;2022-09-17T02:55:19;5.13;;;2.40;;
7057;SDS011;3570;43.080;25.628;2022-09-17T03:01:05;2.80;;;2.37;;
7057;SDS011;3570;43.080;25.628;2022-09-17T03:03:55;4.03;;;2.50;;
7057;SDS011;3570;43.080;25.628;2022-09-17T03:06:44;3.13;;;2.33;;
7057;SDS011;3570;43.080;25.628;2022-09-17T03:09:29;8.47;;;2.77;;
7057;SDS011;3570;43.080;25.628;2022-09-17T03:12:13;5.43;;;2.60;;
7057;SDS011;3570;43.080;25.628;2022-09-17T03:14:58;4.77;;;2.40;;
7057;SDS011;3570;43.080;25.628;2022-09-17T03:17:42;3.30;;;2.60;;
7057;SDS011;3570;43.080;25.628;2022-09-17T03:20:26;5.23;;;2.50;;
7057;SDS011;3570;43.080;25.628;2022-09-17T03:23:10;5.00;;;2.47;;
7057;SDS011;3570;43.080;25.628;2022-09-17T03:25:54;4.20;;;2.50;;
7057;SDS011;3570;43.080;25.628;2022-09-17T03:28:39;5.20;;;2.30;;
7057;SDS011;3570;43.080;25.628;2022-09-17T03:31:23;6.43;;;2.97;;
7057;SDS011;3570;43.080;25.628;2022-09-17T03:34:07;6.53;;;2.90;;
7057;SDS011;3570;43.080;25.628;2022-09-17T03:36:50;6.07;;;2.77;;
7057;SDS011;3570;43.080;25.628;2022-09-17T03:39:34;4.90;;;2.40;;
7057;SDS011;3570;43.080;25.628;2022-09-17T03:42:18;3.80;;;2.40;;
7057;SDS011;3570;43.080;25.628;2022-09-17T03:45:02;4.03;;;2.60;;
7057;SDS011;3570;43.080;25.628;2022-09-17T03:47:47;4.80;;;2.40;;
7057;SDS011;3570;43.080;25.628;2022-09-17T03:50:31;4.67;;;2.33;;
7057;SDS011;3570;43.080;25.628;2022-09-17T03:53:15;2.63;;;2.40;;
7057;SDS011;3570;43.080;25.628;2022-09-17T03:56:00;6.70;;;2.73;;
7057;SDS011;3570;43.080;25.628;2022-09-17T03:58:45;4.10;;;2.40;;
7057;SDS011;3570;43.080;25.628;2022-09-17T04:01:29;4.73;;;2.63;;
7057;SDS011;3570;43.080;25.628;2022-09-17T04:04:13;4.10;;;3.20;;
7057;SDS011;3570;43.080;25.628;2022-09-17T04:06:57;4.63;;;3.03;;
7057;SDS011;3570;43.080;25.628;2022-09-17T04:09:41;5.13;;;2.53;;
7057;SDS011;3570;43.080;25.628;2022-09-17T04:12:24;4.03;;;2.30;;
7057;SDS011;3570;43.080;25.628;2022-09-17T04:15:09;5.37;;;2.57;;
7057;SDS011;3570;43.080;25.628;2022-09-17T04:17:54;8.10;;;3.00;;
7057;SDS011;3570;43.080;25.628;2022-09-17T04:20:40;5.43;;;2.37;;
7057;SDS011;3570;43.080;25.628;2022-09-17T04:23:25;5.87;;;2.87;;
7057;SDS011;3570;43.080;25.628;2022-09-17T04:26:09;7.00;;;2.90;;
7057;SDS011;3570;43.080;25.628;2022-09-17T04:28:54;5.23;;;2.50;;
7057;SDS011;3570;43.080;25.628;2022-09-17T04:31:38;4.10;;;2.63;;
7057;SDS011;3570;43.080;25.628;2022-09-17T04:34:22;4.73;;;2.37;;
7057;SDS011;3570;43.080;25.628;2022-09-17T04:37:06;4.53;;;2.60;;
7057;SDS011;3570;43.080;25.628;2022-09-17T04:39:51;7.73;;;2.90;;
7057;SDS011;3570;43.080;25.628;2022-09-17T04:42:35;3.07;;;2.57;;
7057;SDS011;3570;43.080;25.628;2022-09-17T04:45:19;7.97;;;2.77;;
7057;SDS011;3570;43.080;25.628;2022-09-17T04:48:03;7.70;;;3.13;;
7057;SDS011;3570;43.080;25.628;2022-09-17T04:50:48;6.03;;;2.20;;
7057;SDS011;3570;43.080;25.628;2022-09-17T04:53:31;6.77;;;2.90;;
7057;SDS011;3570;43.080;25.628;2022-09-17T04:56:15;4.63;;;2.80;;
7057;SDS011;3570;43.080;25.628;2022-09-17T04:58:59;6.43;;;2.80;;
7057;SDS011;3570;43.080;25.628;2022-09-17T05:01:43;5.57;;;2.60;;
7057;SDS011;3570;43.080;25.628;2022-09-17T05:04:27;8.23;;;2.70;;
7057;SDS011;3570;43.080;25.628;2022-09-17T05:07:11;9.17;;;3.50;;
7057;SDS011;3570;43.080;25.628;2022-09-17T05:09:55;4.20;;;2.63;;
7057;SDS011;3570;43.080;25.628;2022-09-17T05:12:39;3.63;;;2.60;;
7057;SDS011;3570;43.080;25.628;2022-09-17T05:15:23;4.23;;;2.80;;
7057;SDS011;3570;43.080;25.628;2022-09-17T05:18:08;5.10;;;3.33;;
7057;SDS011;3570;43.080;25.628;2022-09-17T05:20:52;9.17;;;2.80;;
7057;SDS011;3570;43.080;25.628;2022-09-17T05:23:36;4.57;;;2.87;;
7057;SDS011;3570;43.080;25.628;2022-09-17T05:26:20;6.90;;;3.33;;
7057;SDS011;3570;43.080;25.628;2022-09-17T05:29:04;3.90;;;3.00;;
7057;SDS011;3570;43.080;25.628;2022-09-17T05:31:48;6.33;;;3.17;;
7057;SDS011;3570;43.080;25.628;2022-09-17T05:34:32;5.67;;;3.00;;
7057;SDS011;3570;43.080;25.628;2022-09-17T05:37:16;5.60;;;2.60;;
7057;SDS011;3570;43.080;25.628;2022-09-17T05:40:01;4.23;;;2.87;;
7057;SDS011;3570;43.080;25.628;2022-09-17T05:42:46;6.23;;;3.10;;
7057;SDS011;3570;43.080;25.628;2022-09-17T05:45:31;3.13;;;2.27;;
7057;SDS011;3570;43.080;25.628;2022-09-17T05:48:16;5.63;;;2.97;;
7057;SDS011;3570;43.080;25.628;2022-09-17T05:51:00;7.37;;;2.80;;
7057;SDS011;3570;43.080;25.628;2022-09-17T05:53:44;7.40;;;2.60;;
7057;SDS011;3570;43.080;25.628;2022-09-17T05:56:28;6.77;;;3.17;;
7057;SDS011;3570;43.080;25.628;2022-09-17T05:59:12;5.20;;;2.70;;
7057;SDS011;3570;43.080;25.628;2022-09-17T06:01:58;7.60;;;3.07;;
7057;SDS011;3570;43.080;25.628;2022-09-17T06:04:42;5.97;;;3.00;;
7057;SDS011;3570;43.080;25.628;2022-09-17T06:07:26;7.43;;;3.50;;
7057;SDS011;3570;43.080;25.628;2022-09-17T06:10:10;5.77;;;3.40;;
7057;SDS011;3570;43.080;25.628;2022-09-17T06:12:55;6.70;;;3.53;;
7057;SDS011;3570;43.080;25.628;2022-09-17T06:15:40;4.87;;;2.93;;
7057;SDS011;3570;43.080;25.628;2022-09-17T06:18:24;5.00;;;2.70;;
7057;SDS011;3570;43.080;25.628;2022-09-17T06:21:10;5.40;;;3.27;;
7057;SDS011;3570;43.080;25.628;2022-09-17T06:23:54;11.80;;;4.70;;
7057;SDS011;3570;43.080;25.628;2022-09-17T06:26:38;8.70;;;3.60;;
7057;SDS011;3570;43.080;25.628;2022-09-17T06:29:22;7.90;;;3.67;;
7057;SDS011;3570;43.080;25.628;2022-09-17T06:32:07;5.13;;;3.00;;
7057;SDS011;3570;43.080;25.628;2022-09-17T06:34:55;4.60;;;2.97;;
7057;SDS011;3570;43.080;25.628;2022-09-17T06:37:40;7.60;;;2.93;;
7057;SDS011;3570;43.080;25.628;2022-09-17T06:40:24;6.97;;;3.03;;
7057;SDS011;3570;43.080;25.628;2022-09-17T06:43:08;5.83;;;3.07;;
7057;SDS011;3570;43.080;25.628;2022-09-17T06:48:40;6.43;;;3.17;;
7057;SDS011;3570;43.080;25.628;2022-09-17T06:51:24;8.60;;;3.88;;
7057;SDS011;3570;43.080;25.628;2022-09-17T06:54:08;5.93;;;3.55;;
7057;SDS011;3570;43.080;25.628;2022-09-17T06:56:53;7.13;;;3.70;;
7057;SDS011;3570;43.080;25.628;2022-09-17T06:59:36;7.97;;;4.57;;
7057;SDS011;3570;43.080;25.628;2022-09-17T07:02:20;8.93;;;4.85;;
7057;SDS011;3570;43.080;25.628;2022-09-17T07:05:04;11.98;;;5.10;;
7057;SDS011;3570;43.080;25.628;2022-09-17T07:07:49;12.27;;;5.75;;
7057;SDS011;3570;43.080;25.628;2022-09-17T07:10:33;8.07;;;4.53;;
7057;SDS011;3570;43.080;25.628;2022-09-17T07:13:17;8.65;;;3.67;;
7057;SDS011;3570;43.080;25.628;2022-09-17T07:16:01;6.78;;;3.70;;
7057;SDS011;3570;43.080;25.628;2022-09-17T07:18:47;7.55;;;4.05;;
7057;SDS011;3570;43.080;25.628;2022-09-17T07:21:31;8.15;;;3.72;;
7057;SDS011;3570;43.080;25.628;2022-09-17T07:24:14;5.47;;;3.35;;
7057;SDS011;3570;43.080;25.628;2022-09-17T07:26:59;6.93;;;4.25;;
7057;SDS011;3570;43.080;25.628;2022-09-17T07:29:44;6.75;;;3.92;;
7057;SDS011;3570;43.080;25.628;2022-09-17T07:32:29;5.93;;;3.67;;
7057;SDS011;3570;43.080;25.628;2022-09-17T07:35:13;5.28;;;3.70;;
7057;SDS011;3570;43.080;25.628;2022-09-17T07:37:58;8.98;;;3.80;;
7057;SDS011;3570;43.080;25.628;2022-09-17T07:40:42;6.80;;;3.65;;
7057;SDS011;3570;43.080;25.628;2022-09-17T07:43:26;6.88;;;4.63;;
7057;SDS011;3570;43.080;25.628;2022-09-17T07:46:16;7.78;;;4.25;;
7057;SDS011;3570;43.080;25.628;2022-09-17T07:49:01;10.02;;;4.28;;
7057;SDS011;3570;43.080;25.628;2022-09-17T07:51:45;6.28;;;3.80;;
7057;SDS011;3570;43.080;25.628;2022-09-17T07:54:29;6.18;;;4.05;;
7057;SDS011;3570;43.080;25.628;2022-09-17T07:57:13;9.23;;;4.20;;
7057;SDS011;3570;43.080;25.628;2022-09-17T07:59:57;5.60;;;4.40;;
7057;SDS011;3570;43.080;25.628;2022-09-17T08:02:41;9.23;;;4.50;;
7057;SDS011;3570;43.080;25.628;2022-09-17T08:05:25;8.75;;;5.05;;
7057;SDS011;3570;43.080;25.628;2022-09-17T08:08:10;7.60;;;4.72;;
7057;SDS011;3570;43.080;25.628;2022-09-17T08:10:54;10.55;;;5.65;;
7057;SDS011;3570;43.080;25.628;2022-09-17T08:13:46;12.27;;;4.97;;
7057;SDS011;3570;43.080;25.628;2022-09-17T08:16:32;9.02;;;4.95;;
7057;SDS011;3570;43.080;25.628;2022-09-17T08:19:15;9.73;;;5.05;;
7057;SDS011;3570;43.080;25.628;2022-09-17T08:22:01;7.07;;;4.47;;
7057;SDS011;3570;43.080;25.628;2022-09-17T08:24:45;8.25;;;3.67;;
7057;SDS011;3570;43.080;25.628;2022-09-17T08:27:31;7.05;;;3.05;;
7057;SDS011;3570;43.080;25.628;2022-09-17T08:30:16;5.63;;;2.92;;
7057;SDS011;3570;43.080;25.628;2022-09-17T08:33:00;4.78;;;2.50;;
7057;SDS011;3570;43.080;25.628;2022-09-17T08:35:54;5.57;;;2.25;;
7057;SDS011;3570;43.080;25.628;2022-09-17T08:38:42;5.97;;;2.63;;
7057;SDS011;3570;43.080;25.628;2022-09-17T08:47:24;5.60;;;2.20;;
7057;SDS011;3570;43.080;25.628;2022-09-17T08:50:14;7.65;;;4.38;;
7057;SDS011;3570;43.080;25.628;2022-09-17T08:56:15;11.63;;;5.40;;
7057;SDS011;3570;43.080;25.628;2022-09-17T09:05:08;9.27;;;4.35;;
7057;SDS011;3570;43.080;25.628;2022-09-17T09:08:15;5.57;;;3.30;;
7057;SDS011;3570;43.080;25.628;2022-09-17T09:11:22;3.15;;;2.20;;
7057;SDS011;3570;43.080;25.628;2022-09-17T09:17:02;4.07;;;2.00;;
7057;SDS011;3570;43.080;25.628;2022-09-17T09:19:50;4.05;;;1.85;;
7057;SDS011;3570;43.080;25.628;2022-09-17T09:22:47;5.68;;;1.80;;
7057;SDS011;3570;43.080;25.628;2022-09-17T09:25:35;9.77;;;1.92;;
7057;SDS011;3570;43.080;25.628;2022-09-17T09:34:27;7.50;;;2.70;;
7057;SDS011;3570;43.080;25.628;2022-09-17T09:37:15;3.58;;;1.85;;
7057;SDS011;3570;43.080;25.628;2022-09-17T09:46:54;4.00;;;1.40;;
7057;SDS011;3570;43.080;25.628;2022-09-17T09:50:16;4.75;;;1.33;;
7057;SDS011;3570;43.080;25.628;2022-09-17T09:56:26;5.70;;;1.30;;
7057;SDS011;3570;43.080;25.628;2022-09-17T09:59:40;3.92;;;1.65;;
7057;SDS011;3570;43.080;25.628;2022-09-17T10:02:25;4.55;;;1.90;;
7057;SDS011;3570;43.080;25.628;2022-09-17T10:05:10;5.82;;;1.60;;
7057;SDS011;3570;43.080;25.628;2022-09-17T10:07:54;4.07;;;1.45;;
7057;SDS011;3570;43.080;25.628;2022-09-17T10:10:56;3.80;;;1.48;;
7057;SDS011;3570;43.080;25.628;2022-09-17T10:13:40;3.08;;;1.52;;
7057;SDS011;3570;43.080;25.628;2022-09-17T10:16:25;3.42;;;1.30;;
7057;SDS011;3570;43.080;25.628;2022-09-17T10:19:15;2.58;;;1.23;;
7057;SDS011;3570;43.080;25.628;2022-09-17T10:31:45;2.60;;;1.20;;
7057;SDS011;3570;43.080;25.628;2022-09-17T10:34:30;1.83;;;1.15;;
7057;SDS011;3570;43.080;25.628;2022-09-17T10:37:32;1.73;;;0.90;;
7057;SDS011;3570;43.080;25.628;2022-09-17T10:43:21;3.95;;;1.05;;
7057;SDS011;3570;43.080;25.628;2022-09-17T10:46:17;1.50;;;1.00;;
7057;SDS011;3570;43.080;25.628;2022-09-17T10:49:09;2.00;;;1.23;;
7057;SDS011;3570;43.080;25.628;2022-09-17T10:52:05;3.08;;;1.30;;
7057;SDS011;3570;43.080;25.628;2022-09-17T10:58:08;3.83;;;1.60;;
7057;SDS011;3570;43.080;25.628;2022-09-17T11:07:17;2.42;;;1.05;;
7057;SDS011;3570;43.080;25.628;2022-09-17T11:10:16;3.40;;;1.45;;
7057;SDS011;3570;43.080;25.628;2022-09-17T11:16:31;1.15;;;1.05;;
7057;SDS011;3570;43.080;25.628;2022-09-17T11:22:57;1.70;;;1.17;;
7057;SDS011;3570;43.080;25.628;2022-09-17T11:26:07;1.77;;;1.20;;
7057;SDS011;3570;43.080;25.628;2022-09-17T11:35:14;1.57;;;1.23;;
7057;SDS011;3570;43.080;25.628;2022-09-17T11:38:11;4.40;;;1.50;;
7057;SDS011;3570;43.080;25.628;2022-09-17T11:41:20;1.97;;;1.43;;
7057;SDS011;3570;43.080;25.628;2022-09-17T11:44:13;1.90;;;1.27;;
7057;SDS011;3570;43.080;25.628;2022-09-17T11:47:09;2.17;;;1.10;;
7057;SDS011;3570;43.080;25.628;2022-09-17T11:50:15;1.23;;;0.97;;
7057;SDS011;3570;43.080;25.628;2022-09-17T11:56:20;1.23;;;1.13;;
7057;SDS011;3570;43.080;25.628;2022-09-17T11:59:15;1.20;;;1.10;;
7057;SDS011;3570;43.080;25.628;2022-09-17T12:05:16;2.87;;;1.13;;
7057;SDS011;3570;43.080;25.628;2022-09-17T12:12:00;4.37;;;1.47;;
7057;SDS011;3570;43.080;25.628;2022-09-17T12:14:50;3.83;;;1.80;;
7057;SDS011;3570;43.080;25.628;2022-09-17T12:17:43;3.27;;;1.90;;
7057;SDS011;3570;43.080;25.628;2022-09-17T12:20:37;4.33;;;2.40;;
7057;SDS011;3570;43.080;25.628;2022-09-17T12:26:43;6.27;;;2.30;;
7057;SDS011;3570;43.080;25.628;2022-09-17T12:41:31;3.70;;;1.90;;
7057;SDS011;3570;43.080;25.628;2022-09-17T12:59:18;7.40;;;2.73;;
7057;SDS011;3570;43.080;25.628;2022-09-17T13:05:36;7.23;;;2.40;;
7057;SDS011;3570;43.080;25.628;2022-09-17T13:11:44;6.43;;;2.30;;
7057;SDS011;3570;43.080;25.628;2022-09-17T13:23:37;3.10;;;1.80;;
7057;SDS011;3570;43.080;25.628;2022-09-17T13:26:34;2.80;;;1.90;;
7057;SDS011;3570;43.080;25.628;2022-09-17T13:38:03;3.20;;;2.27;;
7057;SDS011;3570;43.080;25.628;2022-09-17T13:40:47;5.13;;;1.90;;
7057;SDS011;3570;43.080;25.628;2022-09-17T13:43:31;1.93;;;1.37;;
7057;SDS011;3570;43.080;25.628;2022-09-17T13:46:15;2.50;;;1.58;;
7057;SDS011;3570;43.080;25.628;2022-09-17T13:49:13;2.30;;;1.38;;
7057;SDS011;3570;43.080;25.628;2022-09-17T13:51:59;1.67;;;1.33;;
7057;SDS011;3570;43.080;25.628;2022-09-17T13:54:42;2.00;;;1.42;;
7057;SDS011;3570;43.080;25.628;2022-09-17T13:57:29;2.67;;;1.60;;
7057;SDS011;3570;43.080;25.628;2022-09-17T14:09:33;4.00;;;1.70;;
7057;SDS011;3570;43.080;25.628;2022-09-17T14:18:37;2.10;;;1.50;;
7057;SDS011;3570;43.080;25.628;2022-09-17T14:21:29;3.10;;;1.50;;
7057;SDS011;3570;43.080;25.628;2022-09-17T14:24:19;2.70;;;1.67;;
7057;SDS011;3570;43.080;25.628;2022-09-17T14:33:00;3.55;;;2.28;;
7057;SDS011;3570;43.080;25.628;2022-09-17T14:36:01;6.38;;;2.25;;
7057;SDS011;3570;43.080;25.628;2022-09-17T14:38:53;2.97;;;2.58;;
7057;SDS011;3570;43.080;25.628;2022-09-17T14:41:40;3.53;;;2.50;;
7057;SDS011;3570;43.080;25.628;2022-09-17T14:44:26;5.60;;;2.42;;
7057;SDS011;3570;43.080;25.628;2022-09-17T14:47:15;4.32;;;2.45;;
7057;SDS011;3570;43.080;25.628;2022-09-17T14:53:19;2.65;;;1.85;;
7057;SDS011;3570;43.080;25.628;2022-09-17T14:56:03;3.80;;;2.63;;
7057;SDS011;3570;43.080;25.628;2022-09-17T14:58:49;4.35;;;3.33;;
7057;SDS011;3570;43.080;25.628;2022-09-17T15:01:36;5.10;;;3.60;;
7057;SDS011;3570;43.080;25.628;2022-09-17T15:04:22;5.55;;;3.58;;
7057;SDS011;3570;43.080;25.628;2022-09-17T15:07:08;6.17;;;4.43;;
7057;SDS011;3570;43.080;25.628;2022-09-17T15:10:05;4.67;;;3.30;;
7057;SDS011;3570;43.080;25.628;2022-09-17T15:12:55;3.97;;;3.20;;
7057;SDS011;3570;43.080;25.628;2022-09-17T15:15:48;2.70;;;2.30;;
7057;SDS011;3570;43.080;25.628;2022-09-17T15:18:40;5.30;;;2.90;;
7057;SDS011;3570;43.080;25.628;2022-09-17T15:24:40;6.63;;;3.70;;
7057;SDS011;3570;43.080;25.628;2022-09-17T15:27:36;2.47;;;2.27;;
7057;SDS011;3570;43.080;25.628;2022-09-17T15:30:26;4.63;;;2.30;;
7057;SDS011;3570;43.080;25.628;2022-09-17T15:33:10;3.50;;;2.50;;
7057;SDS011;3570;43.080;25.628;2022-09-17T15:38:59;3.97;;;2.77;;
7057;SDS011;3570;43.080;25.628;2022-09-17T15:41:43;5.40;;;3.67;;
7057;SDS011;3570;43.080;25.628;2022-09-17T15:44:37;2.23;;;2.03;;
7057;SDS011;3570;43.080;25.628;2022-09-17T15:50:35;3.47;;;2.70;;
7057;SDS011;3570;43.080;25.628;2022-09-17T15:53:35;2.80;;;2.30;;
7057;SDS011;3570;43.080;25.628;2022-09-17T15:56:24;4.83;;;2.70;;
7057;SDS011;3570;43.080;25.628;2022-09-17T16:02:02;3.23;;;1.90;;
7057;SDS011;3570;43.080;25.628;2022-09-17T16:04:47;3.70;;;2.10;;
7057;SDS011;3570;43.080;25.628;2022-09-17T16:07:35;2.17;;;1.70;;
7057;SDS011;3570;43.080;25.628;2022-09-17T16:10:22;2.47;;;2.10;;
7057;SDS011;3570;43.080;25.628;2022-09-17T16:13:06;3.47;;;2.23;;
7057;SDS011;3570;43.080;25.628;2022-09-17T16:15:49;5.77;;;2.33;;
7057;SDS011;3570;43.080;25.628;2022-09-17T16:18:33;5.10;;;2.00;;
7057;SDS011;3570;43.080;25.628;2022-09-17T16:21:18;4.00;;;2.20;;
7057;SDS011;3570;43.080;25.628;2022-09-17T16:24:02;3.43;;;2.10;;
7057;SDS011;3570;43.080;25.628;2022-09-17T16:26:46;6.37;;;2.20;;
7057;SDS011;3570;43.080;25.628;2022-09-17T16:29:30;3.40;;;1.97;;
7057;SDS011;3570;43.080;25.628;2022-09-17T16:32:14;3.40;;;1.80;;
7057;SDS011;3570;43.080;25.628;2022-09-17T16:34:58;2.60;;;2.40;;
7057;SDS011;3570;43.080;25.628;2022-09-17T16:37:42;2.83;;;2.07;;
7057;SDS011;3570;43.080;25.628;2022-09-17T16:40:26;4.57;;;2.20;;
7057;SDS011;3570;43.080;25.628;2022-09-17T16:43:10;4.97;;;2.40;;
7057;SDS011;3570;43.080;25.628;2022-09-17T16:46:02;4.77;;;2.60;;
7057;SDS011;3570;43.080;25.628;2022-09-17T16:48:50;4.97;;;2.87;;
7057;SDS011;3570;43.080;25.628;2022-09-17T16:51:35;2.70;;;2.30;;
7057;SDS011;3570;43.080;25.628;2022-09-17T16:54:19;2.83;;;2.13;;
7057;SDS011;3570;43.080;25.628;2022-09-17T16:57:03;4.17;;;2.67;;
7057;SDS011;3570;43.080;25.628;2022-09-17T16:59:47;2.57;;;2.00;;
7057;SDS011;3570;43.080;25.628;2022-09-17T17:02:31;4.30;;;2.20;;
7057;SDS011;3570;43.080;25.628;2022-09-17T17:05:15;4.70;;;3.00;;
7057;SDS011;3570;43.080;25.628;2022-09-17T17:07:59;5.47;;;2.37;;
7057;SDS011;3570;43.080;25.628;2022-09-17T17:10:44;3.90;;;2.90;;
7057;SDS011;3570;43.080;25.628;2022-09-17T17:13:33;2.53;;;2.20;;
7057;SDS011;3570;43.080;25.628;2022-09-17T17:16:17;7.27;;;2.80;;
7057;SDS011;3570;43.080;25.628;2022-09-17T17:19:01;3.27;;;2.20;;
7057;SDS011;3570;43.080;25.628;2022-09-17T17:21:48;2.07;;;1.87;;
7057;SDS011;3570;43.080;25.628;2022-09-17T17:24:33;2.23;;;2.00;;
7057;SDS011;3570;43.080;25.628;2022-09-17T17:27:17;2.47;;;2.10;;
7057;SDS011;3570;43.080;25.628;2022-09-17T17:30:02;4.63;;;1.87;;
7057;SDS011;3570;43.080;25.628;2022-09-17T17:32:49;4.63;;;2.00;;
7057;SDS011;3570;43.080;25.628;2022-09-17T17:35:37;3.43;;;2.43;;
7057;SDS011;3570;43.080;25.628;2022-09-17T17:38:21;3.13;;;1.90;;
7057;SDS011;3570;43.080;25.628;2022-09-17T17:41:12;4.00;;;1.80;;
7057;SDS011;3570;43.080;25.628;2022-09-17T17:43:57;4.10;;;1.80;;
7057;SDS011;3570;43.080;25.628;2022-09-17T17:46:41;1.97;;;1.83;;
7057;SDS011;3570;43.080;25.628;2022-09-17T17:49:25;2.37;;;1.83;;
7057;SDS011;3570;43.080;25.628;2022-09-17T17:52:09;6.50;;;1.90;;
7057;SDS011;3570;43.080;25.628;2022-09-17T17:54:53;1.70;;;1.60;;
7057;SDS011;3570;43.080;25.628;2022-09-17T17:57:37;2.40;;;1.87;;
7057;SDS011;3570;43.080;25.628;2022-09-17T18:00:22;3.30;;;2.00;;
7057;SDS011;3570;43.080;25.628;2022-09-17T18:03:07;3.47;;;1.60;;
7057;SDS011;3570;43.080;25.628;2022-09-17T18:05:53;2.10;;;1.93;;
7057;SDS011;3570;43.080;25.628;2022-09-17T18:08:41;3.07;;;2.00;;
7057;SDS011;3570;43.080;25.628;2022-09-17T18:11:26;3.83;;;2.33;;
7057;SDS011;3570;43.080;25.628;2022-09-17T18:14:11;2.10;;;1.90;;
7057;SDS011;3570;43.080;25.628;2022-09-17T18:16:56;3.13;;;1.97;;
7057;SDS011;3570;43.080;25.628;2022-09-17T18:19:40;3.13;;;1.67;;
7057;SDS011;3570;43.080;25.628;2022-09-17T18:22:24;4.00;;;1.63;;
7057;SDS011;3570;43.080;25.628;2022-09-17T18:25:09;2.97;;;2.00;;
7057;SDS011;3570;43.080;25.628;2022-09-17T18:27:53;1.50;;;1.40;;
7057;SDS011;3570;43.080;25.628;2022-09-17T18:30:37;1.37;;;0.90;;
7057;SDS011;3570;43.080;25.628;2022-09-17T18:33:22;1.67;;;1.30;;
7057;SDS011;3570;43.080;25.628;2022-09-17T18:36:08;2.77;;;1.40;;
7057;SDS011;3570;43.080;25.628;2022-09-17T18:38:53;1.40;;;1.30;;
7057;SDS011;3570;43.080;25.628;2022-09-17T18:41:40;1.30;;;1.20;;
7057;SDS011;3570;43.080;25.628;2022-09-17T18:44:24;4.73;;;1.20;;
7057;SDS011;3570;43.080;25.628;2022-09-17T18:47:08;2.80;;;1.40;;
7057;SDS011;3570;43.080;25.628;2022-09-17T18:49:52;1.63;;;1.30;;
7057;SDS011;3570;43.080;25.628;2022-09-17T18:52:36;4.13;;;1.47;;
7057;SDS011;3570;43.080;25.628;2022-09-17T18:55:20;2.97;;;1.13;;
7057;SDS011;3570;43.080;25.628;2022-09-17T18:58:04;1.83;;;1.40;;
7057;SDS011;3570;43.080;25.628;2022-09-17T19:00:48;3.73;;;1.33;;
7057;SDS011;3570;43.080;25.628;2022-09-17T19:03:32;1.93;;;1.23;;
7057;SDS011;3570;43.080;25.628;2022-09-17T19:06:17;1.10;;;1.10;;
7057;SDS011;3570;43.080;25.628;2022-09-17T19:09:01;1.30;;;1.20;;
7057;SDS011;3570;43.080;25.628;2022-09-17T19:11:49;1.40;;;1.30;;
7057;SDS011;3570;43.080;25.628;2022-09-17T19:14:33;1.50;;;1.30;;
7057;SDS011;3570;43.080;25.628;2022-09-17T19:17:17;2.40;;;1.30;;
7057;SDS011;3570;43.080;25.628;2022-09-17T19:20:01;1.33;;;1.23;;
7057;SDS011;3570;43.080;25.628;2022-09-17T19:22:48;1.37;;;1.20;;
7057;SDS011;3570;43.080;25.628;2022-09-17T19:25:35;1.93;;;1.50;;
7057;SDS011;3570;43.080;25.628;2022-09-17T19:28:20;1.90;;;1.23;;
7057;SDS011;3570;43.080;25.628;2022-09-17T19:31:06;1.83;;;1.30;;
7057;SDS011;3570;43.080;25.628;2022-09-17T19:33:51;1.30;;;1.20;;
7057;SDS011;3570;43.080;25.628;2022-09-17T19:36:36;1.60;;;1.30;;
7057;SDS011;3570;43.080;25.628;2022-09-17T19:39:20;2.30;;;1.20;;
7057;SDS011;3570;43.080;25.628;2022-09-17T19:42:03;2.10;;;1.27;;
7057;SDS011;3570;43.080;25.628;2022-09-17T19:44:48;1.07;;;1.00;;
7057;SDS011;3570;43.080;25.628;2022-09-17T19:47:32;0.97;;;0.97;;
7057;SDS011;3570;43.080;25.628;2022-09-17T19:50:16;1.03;;;1.03;;
7057;SDS011;3570;43.080;25.628;2022-09-17T19:53:00;1.33;;;1.00;;
7057;SDS011;3570;43.080;25.628;2022-09-17T19:55:46;1.63;;;1.20;;
7057;SDS011;3570;43.080;25.628;2022-09-17T19:58:31;1.37;;;1.20;;
7057;SDS011;3570;43.080;25.628;2022-09-17T20:01:15;1.13;;;1.00;;
7057;SDS011;3570;43.080;25.628;2022-09-17T20:04:00;1.20;;;1.03;;
7057;SDS011;3570;43.080;25.628;2022-09-17T20:06:44;0.97;;;0.97;;
7057;SDS011;3570;43.080;25.628;2022-09-17T20:09:28;1.07;;;1.00;;
7057;SDS011;3570;43.080;25.628;2022-09-17T20:12:13;1.50;;;1.30;;
7057;SDS011;3570;43.080;25.628;2022-09-17T20:14:57;2.40;;;1.20;;
7057;SDS011;3570;43.080;25.628;2022-09-17T20:17:41;3.80;;;1.20;;
7057;SDS011;3570;43.080;25.628;2022-09-17T20:20:25;1.37;;;1.10;;
7057;SDS011;3570;43.080;25.628;2022-09-17T20:23:11;1.80;;;1.30;;
7057;SDS011;3570;43.080;25.628;2022-09-17T20:25:55;3.47;;;1.23;;
7057;SDS011;3570;43.080;25.628;2022-09-17T20:28:39;4.13;;;1.37;;
7057;SDS011;3570;43.080;25.628;2022-09-17T20:31:26;2.53;;;1.30;;
7057;SDS011;3570;43.080;25.628;2022-09-17T20:34:11;1.40;;;1.30;;
7057;SDS011;3570;43.080;25.628;2022-09-17T20:36:56;1.40;;;1.30;;
7057;SDS011;3570;43.080;25.628;2022-09-17T20:39:39;1.77;;;1.00;;
7057;SDS011;3570;43.080;25.628;2022-09-17T20:42:24;1.30;;;1.20;;